sensor_id;sensor_type;location;lat;lon;timestamp;temperature;humidity
31765;DHT22;18338;53.240;8.798;2023-03-04T00:01:28;5.80;99.90
31765;DHT22;18338;53.240;8.798;2023-03-04T00:03:55;5.80;99.90
31765;DHT22;18338;53.240;8.798;2023-03-04T00:06:22;5.80;99.90
31765;DHT22;18338;53.240;8.798;2023-03-04T00:08:48;5.80;99.90
31765;DHT22;18338;53.240;8.798;2023-03-04T00:11:15;5.80;99.90
31765;DHT22;18338;53.240;8.798;2023-03-04T00:13:42;5.80;99.90
31765;DHT22;18338;53.240;8.798;2023-03-04T00:16:08;5.80;99.90
31765;DHT22;18338;53.240;8.798;2023-03-04T00:18:35;5.80;99.90
31765;DHT22;18338;53.240;8.798;2023-03-04T00:21:02;5.80;99.90
31765;DHT22;18338;53.240;8.798;2023-03-04T00:23:29;5.80;99.90
31765;DHT22;18338;53.240;8.798;2023-03-04T00:25:56;5.80;99.90
31765;DHT22;18338;53.240;8.798;2023-03-04T00:28:22;5.80;99.90
31765;DHT22;18338;53.240;8.798;2023-03-04T00:30:49;5.90;99.90
31765;DHT22;18338;53.240;8.798;2023-03-04T00:33:16;5.90;99.90
31765;DHT22;18338;53.240;8.798;2023-03-04T00:35:43;5.80;99.90
31765;DHT22;18338;53.240;8.798;2023-03-04T00:38:10;5.80;99.90
31765;DHT22;18338;53.240;8.798;2023-03-04T00:40:37;5.80;99.90
31765;DHT22;18338;53.240;8.798;2023-03-04T00:43:03;5.80;99.90
31765;DHT22;18338;53.240;8.798;2023-03-04T00:45:30;5.80;99.90
31765;DHT22;18338;53.240;8.798;2023-03-04T00:47:57;5.80;99.90
31765;DHT22;18338;53.240;8.798;2023-03-04T00:50:24;5.80;99.90
31765;DHT22;18338;53.240;8.798;2023-03-04T00:52:50;5.80;99.90
31765;DHT22;18338;53.240;8.798;2023-03-04T00:55:18;5.80;99.90
31765;DHT22;18338;53.240;8.798;2023-03-04T00:57:44;5.80;99.90
31765;DHT22;18338;53.240;8.798;2023-03-04T01:00:12;5.80;99.90
31765;DHT22;18338;53.240;8.798;2023-03-04T01:02:39;5.80;99.90
31765;DHT22;18338;53.240;8.798;2023-03-04T01:05:07;5.80;99.90
31765;DHT22;18338;53.240;8.798;2023-03-04T01:07:34;5.80;99.90
31765;DHT22;18338;53.240;8.798;2023-03-04T01:10:01;5.80;99.90
31765;DHT22;18338;53.240;8.798;2023-03-04T01:12:28;5.80;99.90
31765;DHT22;18338;53.240;8.798;2023-03-04T01:14:55;5.80;99.90
31765;DHT22;18338;53.240;8.798;2023-03-04T01:17:21;5.80;99.90
31765;DHT22;18338;53.240;8.798;2023-03-04T01:19:48;5.80;99.90
31765;DHT22;18338;53.240;8.798;2023-03-04T01:22:15;5.90;99.90
31765;DHT22;18338;53.240;8.798;2023-03-04T01:24:44;5.90;99.90
31765;DHT22;18338;53.240;8.798;2023-03-04T01:27:11;5.90;99.90
31765;DHT22;18338;53.240;8.798;2023-03-04T01:29:38;5.80;99.90
31765;DHT22;18338;53.240;8.798;2023-03-04T01:32:05;5.90;99.90
31765;DHT22;18338;53.240;8.798;2023-03-04T01:34:32;5.80;99.90
31765;DHT22;18338;53.240;8.798;2023-03-04T01:36:59;5.90;99.90
31765;DHT22;18338;53.240;8.798;2023-03-04T01:39:26;6.00;99.90
31765;DHT22;18338;53.240;8.798;2023-03-04T01:41:53;5.90;99.90
31765;DHT22;18338;53.240;8.798;2023-03-04T01:44:19;6.00;99.90
31765;DHT22;18338;53.240;8.798;2023-03-04T01:46:50;6.00;99.90
31765;DHT22;18338;53.240;8.798;2023-03-04T01:49:18;6.00;99.90
31765;DHT22;18338;53.240;8.798;2023-03-04T01:51:52;5.90;99.90
31765;DHT22;18338;53.240;8.798;2023-03-04T01:54:21;5.90;99.90
31765;DHT22;18338;53.240;8.798;2023-03-04T01:56:49;5.90;99.90
31765;DHT22;18338;53.240;8.798;2023-03-04T02:01:56;5.80;99.90
31765;DHT22;18338;53.240;8.798;2023-03-04T02:04:27;5.80;99.90
31765;DHT22;18338;53.240;8.798;2023-03-04T02:06:55;5.80;99.90
31765;DHT22;18338;53.240;8.798;2023-03-04T02:09:22;5.70;99.90
31765;DHT22;18338;53.240;8.798;2023-03-04T02:11:50;5.80;99.90
31765;DHT22;18338;53.240;8.798;2023-03-04T02:14:18;5.80;99.90
31765;DHT22;18338;53.240;8.798;2023-03-04T02:16:46;5.80;99.90
31765;DHT22;18338;53.240;8.798;2023-03-04T02:19:31;5.80;99.90
31765;DHT22;18338;53.240;8.798;2023-03-04T02:22:02;5.80;99.90
31765;DHT22;18338;53.240;8.798;2023-03-04T02:24:39;5.80;99.90
31765;DHT22;18338;53.240;8.798;2023-03-04T02:27:06;5.90;99.90
31765;DHT22;18338;53.240;8.798;2023-03-04T02:29:33;5.90;99.90
31765;DHT22;18338;53.240;8.798;2023-03-04T02:32:00;5.90;99.90
31765;DHT22;18338;53.240;8.798;2023-03-04T02:34:30;5.90;99.90
31765;DHT22;18338;53.240;8.798;2023-03-04T02:36:58;5.90;99.90
31765;DHT22;18338;53.240;8.798;2023-03-04T02:39:31;5.90;99.90
31765;DHT22;18338;53.240;8.798;2023-03-04T02:42:00;5.90;99.90
31765;DHT22;18338;53.240;8.798;2023-03-04T02:44:33;5.90;99.90
31765;DHT22;18338;53.240;8.798;2023-03-04T02:47:01;5.90;99.90
31765;DHT22;18338;53.240;8.798;2023-03-04T02:49:30;5.80;99.90
31765;DHT22;18338;53.240;8.798;2023-03-04T02:52:21;5.80;99.90
31765;DHT22;18338;53.240;8.798;2023-03-04T02:54:48;5.80;99.90
31765;DHT22;18338;53.240;8.798;2023-03-04T02:57:15;5.80;99.90
31765;DHT22;18338;53.240;8.798;2023-03-04T02:59:42;5.80;99.90
31765;DHT22;18338;53.240;8.798;2023-03-04T03:02:09;5.80;99.90
31765;DHT22;18338;53.240;8.798;2023-03-04T03:04:37;5.80;99.90
31765;DHT22;18338;53.240;8.798;2023-03-04T03:07:04;5.80;99.90
31765;DHT22;18338;53.240;8.798;2023-03-04T03:09:31;5.90;99.90
31765;DHT22;18338;53.240;8.798;2023-03-04T03:11:58;5.90;99.90
31765;DHT22;18338;53.240;8.798;2023-03-04T03:14:24;5.90;99.90
31765;DHT22;18338;53.240;8.798;2023-03-04T03:16:51;5.90;99.90
31765;DHT22;18338;53.240;8.798;2023-03-04T03:19:18;5.80;99.90
31765;DHT22;18338;53.240;8.798;2023-03-04T03:21:45;5.80;99.90
31765;DHT22;18338;53.240;8.798;2023-03-04T03:24:13;5.80;99.90
31765;DHT22;18338;53.240;8.798;2023-03-04T03:26:40;5.80;99.90
31765;DHT22;18338;53.240;8.798;2023-03-04T03:29:07;5.80;99.90
31765;DHT22;18338;53.240;8.798;2023-03-04T03:31:34;5.80;99.90
31765;DHT22;18338;53.240;8.798;2023-03-04T03:34:00;5.80;99.90
31765;DHT22;18338;53.240;8.798;2023-03-04T03:36:27;5.80;99.90
31765;DHT22;18338;53.240;8.798;2023-03-04T03:38:54;5.70;99.90
31765;DHT22;18338;53.240;8.798;2023-03-04T03:41:21;5.70;99.90
31765;DHT22;18338;53.240;8.798;2023-03-04T03:43:48;5.70;99.90
31765;DHT22;18338;53.240;8.798;2023-03-04T03:46:14;5.60;99.90
31765;DHT22;18338;53.240;8.798;2023-03-04T03:48:41;5.60;99.90
31765;DHT22;18338;53.240;8.798;2023-03-04T03:51:08;5.60;99.90
31765;DHT22;18338;53.240;8.798;2023-03-04T03:53:34;5.60;99.90
31765;DHT22;18338;53.240;8.798;2023-03-04T03:56:01;5.60;99.90
31765;DHT22;18338;53.240;8.798;2023-03-04T03:58:28;5.50;99.90
31765;DHT22;18338;53.240;8.798;2023-03-04T04:00:54;5.50;99.90
31765;DHT22;18338;53.240;8.798;2023-03-04T04:03:24;5.50;99.90
31765;DHT22;18338;53.240;8.798;2023-03-04T04:05:51;5.40;99.90
31765;DHT22;18338;53.240;8.798;2023-03-04T04:08:18;5.50;99.90
31765;DHT22;18338;53.240;8.798;2023-03-04T04:10:45;5.50;99.90
31765;DHT22;18338;53.240;8.798;2023-03-04T04:13:11;5.50;99.90
31765;DHT22;18338;53.240;8.798;2023-03-04T04:15:38;5.50;99.90
31765;DHT22;18338;53.240;8.798;2023-03-04T04:18:06;5.50;99.90
31765;DHT22;18338;53.240;8.798;2023-03-04T04:20:33;5.40;99.90
31765;DHT22;18338;53.240;8.798;2023-03-04T04:23:00;5.40;99.90
31765;DHT22;18338;53.240;8.798;2023-03-04T04:25:28;5.40;99.90
31765;DHT22;18338;53.240;8.798;2023-03-04T04:27:55;5.40;99.90
31765;DHT22;18338;53.240;8.798;2023-03-04T04:30:21;5.40;99.90
31765;DHT22;18338;53.240;8.798;2023-03-04T04:32:48;5.40;99.90
31765;DHT22;18338;53.240;8.798;2023-03-04T04:35:15;5.40;99.90
31765;DHT22;18338;53.240;8.798;2023-03-04T04:37:42;5.40;99.90
31765;DHT22;18338;53.240;8.798;2023-03-04T04:40:09;5.40;99.90
31765;DHT22;18338;53.240;8.798;2023-03-04T04:42:36;5.40;99.90
31765;DHT22;18338;53.240;8.798;2023-03-04T04:45:06;5.40;99.90
31765;DHT22;18338;53.240;8.798;2023-03-04T04:47:33;5.40;99.90
31765;DHT22;18338;53.240;8.798;2023-03-04T04:50:00;5.40;99.90
31765;DHT22;18338;53.240;8.798;2023-03-04T04:52:26;5.40;99.90
31765;DHT22;18338;53.240;8.798;2023-03-04T04:54:53;5.50;99.90
31765;DHT22;18338;53.240;8.798;2023-03-04T04:57:20;5.50;99.90
31765;DHT22;18338;53.240;8.798;2023-03-04T04:59:47;5.50;99.90
31765;DHT22;18338;53.240;8.798;2023-03-04T05:02:14;5.50;99.90
31765;DHT22;18338;53.240;8.798;2023-03-04T05:04:40;5.50;99.90
31765;DHT22;18338;53.240;8.798;2023-03-04T05:07:07;5.50;99.90
31765;DHT22;18338;53.240;8.798;2023-03-04T05:09:34;5.60;99.90
31765;DHT22;18338;53.240;8.798;2023-03-04T05:12:00;5.50;99.90
31765;DHT22;18338;53.240;8.798;2023-03-04T05:14:27;5.50;99.90
31765;DHT22;18338;53.240;8.798;2023-03-04T05:16:54;5.60;99.90
31765;DHT22;18338;53.240;8.798;2023-03-04T05:19:21;5.60;99.90
31765;DHT22;18338;53.240;8.798;2023-03-04T05:21:48;5.60;99.90
31765;DHT22;18338;53.240;8.798;2023-03-04T05:24:14;5.60;99.90
31765;DHT22;18338;53.240;8.798;2023-03-04T05:26:41;5.60;99.90
31765;DHT22;18338;53.240;8.798;2023-03-04T05:29:08;5.60;99.90
31765;DHT22;18338;53.240;8.798;2023-03-04T05:31:34;5.60;99.90
31765;DHT22;18338;53.240;8.798;2023-03-04T05:34:01;5.70;99.90
31765;DHT22;18338;53.240;8.798;2023-03-04T05:36:28;5.70;99.90
31765;DHT22;18338;53.240;8.798;2023-03-04T05:38:55;5.70;99.90
31765;DHT22;18338;53.240;8.798;2023-03-04T05:41:21;5.80;99.90
31765;DHT22;18338;53.240;8.798;2023-03-04T05:43:49;5.70;99.90
31765;DHT22;18338;53.240;8.798;2023-03-04T05:46:17;5.80;99.90
31765;DHT22;18338;53.240;8.798;2023-03-04T05:48:44;5.70;99.90
31765;DHT22;18338;53.240;8.798;2023-03-04T05:51:11;5.80;99.90
31765;DHT22;18338;53.240;8.798;2023-03-04T05:53:40;5.80;99.90
31765;DHT22;18338;53.240;8.798;2023-03-04T05:56:08;5.70;99.90
31765;DHT22;18338;53.240;8.798;2023-03-04T05:58:36;5.80;99.90
31765;DHT22;18338;53.240;8.798;2023-03-04T06:01:03;5.80;99.90
31765;DHT22;18338;53.240;8.798;2023-03-04T06:03:30;5.80;99.90
31765;DHT22;18338;53.240;8.798;2023-03-04T06:05:58;5.80;99.90
31765;DHT22;18338;53.240;8.798;2023-03-04T06:08:25;5.80;99.90
31765;DHT22;18338;53.240;8.798;2023-03-04T06:10:54;5.80;99.90
31765;DHT22;18338;53.240;8.798;2023-03-04T06:13:21;5.80;99.90
31765;DHT22;18338;53.240;8.798;2023-03-04T06:15:54;5.80;99.90
31765;DHT22;18338;53.240;8.798;2023-03-04T06:18:21;5.70;99.90
31765;DHT22;18338;53.240;8.798;2023-03-04T06:20:48;5.80;99.90
31765;DHT22;18338;53.240;8.798;2023-03-04T06:23:15;5.70;99.90
31765;DHT22;18338;53.240;8.798;2023-03-04T06:25:42;5.70;99.90
31765;DHT22;18338;53.240;8.798;2023-03-04T06:28:09;5.70;99.90
31765;DHT22;18338;53.240;8.798;2023-03-04T06:30:36;5.70;99.90
31765;DHT22;18338;53.240;8.798;2023-03-04T06:33:06;5.70;99.90
31765;DHT22;18338;53.240;8.798;2023-03-04T06:35:33;5.70;99.90
31765;DHT22;18338;53.240;8.798;2023-03-04T06:37:59;5.70;99.90
31765;DHT22;18338;53.240;8.798;2023-03-04T06:40:26;5.70;99.90
31765;DHT22;18338;53.240;8.798;2023-03-04T06:42:53;5.70;99.90
31765;DHT22;18338;53.240;8.798;2023-03-04T06:45:20;5.80;99.90
31765;DHT22;18338;53.240;8.798;2023-03-04T06:47:47;5.70;99.90
31765;DHT22;18338;53.240;8.798;2023-03-04T06:50:13;5.80;99.90
31765;DHT22;18338;53.240;8.798;2023-03-04T06:52:40;5.80;99.90
31765;DHT22;18338;53.240;8.798;2023-03-04T06:55:07;5.80;99.90
31765;DHT22;18338;53.240;8.798;2023-03-04T06:57:34;5.80;99.90
31765;DHT22;18338;53.240;8.798;2023-03-04T07:00:01;5.80;99.90
31765;DHT22;18338;53.240;8.798;2023-03-04T07:02:28;5.80;99.90
31765;DHT22;18338;53.240;8.798;2023-03-04T07:04:55;5.80;99.90
31765;DHT22;18338;53.240;8.798;2023-03-04T07:07:22;5.80;99.90
31765;DHT22;18338;53.240;8.798;2023-03-04T07:09:49;5.80;99.90
31765;DHT22;18338;53.240;8.798;2023-03-04T07:12:16;5.90;99.90
31765;DHT22;18338;53.240;8.798;2023-03-04T07:14:45;5.90;99.90
31765;DHT22;18338;53.240;8.798;2023-03-04T07:17:18;5.90;99.90
31765;DHT22;18338;53.240;8.798;2023-03-04T07:19:45;5.90;99.90
31765;DHT22;18338;53.240;8.798;2023-03-04T07:22:12;5.80;99.90
31765;DHT22;18338;53.240;8.798;2023-03-04T07:24:38;5.90;99.90
31765;DHT22;18338;53.240;8.798;2023-03-04T07:27:05;5.80;99.90
31765;DHT22;18338;53.240;8.798;2023-03-04T07:29:32;5.80;99.90
31765;DHT22;18338;53.240;8.798;2023-03-04T07:31:59;5.80;99.90
31765;DHT22;18338;53.240;8.798;2023-03-04T07:34:36;5.80;99.90
31765;DHT22;18338;53.240;8.798;2023-03-04T07:37:03;5.80;99.90
31765;DHT22;18338;53.240;8.798;2023-03-04T07:39:33;5.80;99.90
31765;DHT22;18338;53.240;8.798;2023-03-04T07:42:22;5.80;99.90
31765;DHT22;18338;53.240;8.798;2023-03-04T07:45:01;5.90;99.90
31765;DHT22;18338;53.240;8.798;2023-03-04T07:47:35;6.00;99.90
31765;DHT22;18338;53.240;8.798;2023-03-04T07:50:07;6.10;99.90
31765;DHT22;18338;53.240;8.798;2023-03-04T07:52:44;6.10;99.90
31765;DHT22;18338;53.240;8.798;2023-03-04T07:55:13;6.20;99.90
31765;DHT22;18338;53.240;8.798;2023-03-04T08:01:48;6.10;99.90
31765;DHT22;18338;53.240;8.798;2023-03-04T08:04:22;6.10;99.90
31765;DHT22;18338;53.240;8.798;2023-03-04T08:06:49;6.10;99.90
31765;DHT22;18338;53.240;8.798;2023-03-04T08:09:20;6.10;99.90
31765;DHT22;18338;53.240;8.798;2023-03-04T08:11:50;6.10;99.90
31765;DHT22;18338;53.240;8.798;2023-03-04T08:14:19;6.00;99.90
31765;DHT22;18338;53.240;8.798;2023-03-04T08:19:33;5.80;99.90
31765;DHT22;18338;53.240;8.798;2023-03-04T08:21:59;5.80;99.90
31765;DHT22;18338;53.240;8.798;2023-03-04T08:24:27;5.70;99.90
31765;DHT22;18338;53.240;8.798;2023-03-04T08:26:53;5.80;99.90
31765;DHT22;18338;53.240;8.798;2023-03-04T08:29:22;5.90;99.90
31765;DHT22;18338;53.240;8.798;2023-03-04T08:31:53;6.00;99.90
31765;DHT22;18338;53.240;8.798;2023-03-04T08:34:23;6.00;99.90
31765;DHT22;18338;53.240;8.798;2023-03-04T08:36:50;6.00;99.90
31765;DHT22;18338;53.240;8.798;2023-03-04T08:39:17;6.00;99.90
31765;DHT22;18338;53.240;8.798;2023-03-04T08:41:46;6.00;99.90
31765;DHT22;18338;53.240;8.798;2023-03-04T08:44:13;6.00;99.90
31765;DHT22;18338;53.240;8.798;2023-03-04T08:46:41;5.90;99.90
31765;DHT22;18338;53.240;8.798;2023-03-04T08:49:10;5.90;99.90
31765;DHT22;18338;53.240;8.798;2023-03-04T08:51:37;5.90;99.90
31765;DHT22;18338;53.240;8.798;2023-03-04T08:54:04;5.90;99.90
31765;DHT22;18338;53.240;8.798;2023-03-04T08:56:31;6.10;99.90
31765;DHT22;18338;53.240;8.798;2023-03-04T08:58:58;6.10;99.90
31765;DHT22;18338;53.240;8.798;2023-03-04T09:01:25;6.10;99.90
31765;DHT22;18338;53.240;8.798;2023-03-04T09:03:52;6.10;99.90
31765;DHT22;18338;53.240;8.798;2023-03-04T09:06:19;6.20;99.90
31765;DHT22;18338;53.240;8.798;2023-03-04T09:08:46;6.50;99.90
31765;DHT22;18338;53.240;8.798;2023-03-04T09:11:13;6.40;99.90
31765;DHT22;18338;53.240;8.798;2023-03-04T09:13:40;6.40;99.90
31765;DHT22;18338;53.240;8.798;2023-03-04T09:16:12;6.40;99.90
31765;DHT22;18338;53.240;8.798;2023-03-04T09:18:40;6.40;99.90
31765;DHT22;18338;53.240;8.798;2023-03-04T09:21:07;6.20;99.90
31765;DHT22;18338;53.240;8.798;2023-03-04T09:23:35;6.30;99.90
31765;DHT22;18338;53.240;8.798;2023-03-04T09:26:13;6.20;99.90
31765;DHT22;18338;53.240;8.798;2023-03-04T09:28:40;6.10;99.90
31765;DHT22;18338;53.240;8.798;2023-03-04T09:31:12;6.10;99.90
31765;DHT22;18338;53.240;8.798;2023-03-04T09:33:38;6.10;99.90
31765;DHT22;18338;53.240;8.798;2023-03-04T09:36:08;6.20;99.90
31765;DHT22;18338;53.240;8.798;2023-03-04T09:38:36;6.50;99.90
31765;DHT22;18338;53.240;8.798;2023-03-04T09:41:11;6.90;99.90
31765;DHT22;18338;53.240;8.798;2023-03-04T09:43:42;7.00;99.90
31765;DHT22;18338;53.240;8.798;2023-03-04T09:46:17;7.20;99.90
31765;DHT22;18338;53.240;8.798;2023-03-04T09:48:51;7.40;99.90
31765;DHT22;18338;53.240;8.798;2023-03-04T09:51:21;7.80;99.90
31765;DHT22;18338;53.240;8.798;2023-03-04T09:54:07;8.80;99.90
31765;DHT22;18338;53.240;8.798;2023-03-04T09:56:37;9.00;99.90
31765;DHT22;18338;53.240;8.798;2023-03-04T10:01:51;9.10;99.90
31765;DHT22;18338;53.240;8.798;2023-03-04T10:04:35;9.50;99.90
31765;DHT22;18338;53.240;8.798;2023-03-04T10:07:14;9.20;99.90
31765;DHT22;18338;53.240;8.798;2023-03-04T10:09:50;9.10;99.90
31765;DHT22;18338;53.240;8.798;2023-03-04T10:12:21;8.70;99.90
31765;DHT22;18338;53.240;8.798;2023-03-04T10:15:02;8.40;99.90
31765;DHT22;18338;53.240;8.798;2023-03-04T10:17:36;7.50;99.90
31765;DHT22;18338;53.240;8.798;2023-03-04T10:20:09;6.90;99.90
31765;DHT22;18338;53.240;8.798;2023-03-04T10:22:46;6.80;99.90
31765;DHT22;18338;53.240;8.798;2023-03-04T10:25:23;7.50;99.90
31765;DHT22;18338;53.240;8.798;2023-03-04T10:28:17;9.90;99.90
31765;DHT22;18338;53.240;8.798;2023-03-04T10:30:50;11.00;99.90
31765;DHT22;18338;53.240;8.798;2023-03-04T10:33:30;12.30;99.90
31765;DHT22;18338;53.240;8.798;2023-03-04T10:36:01;14.00;99.90
31765;DHT22;18338;53.240;8.798;2023-03-04T10:38:34;12.90;99.90
31765;DHT22;18338;53.240;8.798;2023-03-04T10:41:10;10.30;99.90
31765;DHT22;18338;53.240;8.798;2023-03-04T10:43:37;8.80;99.90
31765;DHT22;18338;53.240;8.798;2023-03-04T10:46:04;8.10;99.90
31765;DHT22;18338;53.240;8.798;2023-03-04T10:48:31;9.40;99.90
31765;DHT22;18338;53.240;8.798;2023-03-04T10:53:47;10.30;99.90
31765;DHT22;18338;53.240;8.798;2023-03-04T10:56:37;10.10;99.90
31765;DHT22;18338;53.240;8.798;2023-03-04T10:59:30;10.00;99.90
31765;DHT22;18338;53.240;8.798;2023-03-04T11:02:14;10.40;99.90
31765;DHT22;18338;53.240;8.798;2023-03-04T11:04:41;10.90;99.90
31765;DHT22;18338;53.240;8.798;2023-03-04T11:07:10;11.30;99.90
31765;DHT22;18338;53.240;8.798;2023-03-04T11:09:37;11.80;99.90
31765;DHT22;18338;53.240;8.798;2023-03-04T11:12:11;11.80;99.90
31765;DHT22;18338;53.240;8.798;2023-03-04T11:14:46;11.30;99.90
31765;DHT22;18338;53.240;8.798;2023-03-04T11:17:24;10.20;99.90
31765;DHT22;18338;53.240;8.798;2023-03-04T11:20:16;9.50;99.90
31765;DHT22;18338;53.240;8.798;2023-03-04T11:25:35;9.10;99.90
31765;DHT22;18338;53.240;8.798;2023-03-04T11:28:12;9.20;99.90
31765;DHT22;18338;53.240;8.798;2023-03-04T11:30:51;9.00;99.90
31765;DHT22;18338;53.240;8.798;2023-03-04T11:33:45;8.40;99.90
31765;DHT22;18338;53.240;8.798;2023-03-04T11:39:38;9.40;99.90
31765;DHT22;18338;53.240;8.798;2023-03-04T11:44:50;12.50;99.90
31765;DHT22;18338;53.240;8.798;2023-03-04T11:51:22;10.20;99.90
31765;DHT22;18338;53.240;8.798;2023-03-04T12:02:13;7.00;99.90
31765;DHT22;18338;53.240;8.798;2023-03-04T12:09:12;8.80;99.90
31765;DHT22;18338;53.240;8.798;2023-03-04T12:20:49;8.50;99.90
31765;DHT22;18338;53.240;8.798;2023-03-04T12:26:01;8.80;99.90
31765;DHT22;18338;53.240;8.798;2023-03-04T12:31:40;9.20;99.90
31765;DHT22;18338;53.240;8.798;2023-03-04T12:58:52;7.40;99.90
31765;DHT22;18338;53.240;8.798;2023-03-04T13:04:33;8.10;99.90
31765;DHT22;18338;53.240;8.798;2023-03-04T13:07:16;8.20;99.90
31765;DHT22;18338;53.240;8.798;2023-03-04T13:09:59;8.20;99.90
31765;DHT22;18338;53.240;8.798;2023-03-04T13:12:27;8.30;99.90
31765;DHT22;18338;53.240;8.798;2023-03-04T13:17:40;8.10;99.90
31765;DHT22;18338;53.240;8.798;2023-03-04T13:28:26;8.00;99.90
31765;DHT22;18338;53.240;8.798;2023-03-04T13:36:52;7.60;99.90
31765;DHT22;18338;53.240;8.798;2023-03-04T13:39:26;7.00;99.90
31765;DHT22;18338;53.240;8.798;2023-03-04T13:41:53;7.00;99.90
31765;DHT22;18338;53.240;8.798;2023-03-04T13:44:55;7.00;99.90
31765;DHT22;18338;53.240;8.798;2023-03-04T13:47:40;7.10;99.90
31765;DHT22;18338;53.240;8.798;2023-03-04T13:50:36;7.10;99.90
31765;DHT22;18338;53.240;8.798;2023-03-04T13:59:29;7.70;99.90
31765;DHT22;18338;53.240;8.798;2023-03-04T14:02:19;8.10;99.90
31765;DHT22;18338;53.240;8.798;2023-03-04T14:07:24;8.30;99.90
31765;DHT22;18338;53.240;8.798;2023-03-04T14:12:27;7.10;99.90
31765;DHT22;18338;53.240;8.798;2023-03-04T14:14:56;6.90;99.90
31765;DHT22;18338;53.240;8.798;2023-03-04T14:17:33;6.70;99.90
31765;DHT22;18338;53.240;8.798;2023-03-04T14:22:48;6.30;99.90
31765;DHT22;18338;53.240;8.798;2023-03-04T14:27:49;5.20;99.90
31765;DHT22;18338;53.240;8.798;2023-03-04T14:30:20;5.20;99.90
31765;DHT22;18338;53.240;8.798;2023-03-04T14:33:13;5.40;99.90
31765;DHT22;18338;53.240;8.798;2023-03-04T14:35:49;5.60;99.90
31765;DHT22;18338;53.240;8.798;2023-03-04T14:38:34;5.80;99.90
31765;DHT22;18338;53.240;8.798;2023-03-04T14:41:35;6.00;99.90
31765;DHT22;18338;53.240;8.798;2023-03-04T14:44:40;6.30;99.90
31765;DHT22;18338;53.240;8.798;2023-03-04T14:47:09;6.30;99.90
31765;DHT22;18338;53.240;8.798;2023-03-04T14:49:38;6.70;99.90
31765;DHT22;18338;53.240;8.798;2023-03-04T14:52:27;6.60;99.90
31765;DHT22;18338;53.240;8.798;2023-03-04T14:57:47;6.10;99.90
31765;DHT22;18338;53.240;8.798;2023-03-04T15:00:27;5.90;99.90
31765;DHT22;18338;53.240;8.798;2023-03-04T15:06:52;5.90;99.90
31765;DHT22;18338;53.240;8.798;2023-03-04T15:09:24;5.80;99.90
31765;DHT22;18338;53.240;8.798;2023-03-04T15:12:00;5.80;99.90
31765;DHT22;18338;53.240;8.798;2023-03-04T15:14:49;5.60;99.90
31765;DHT22;18338;53.240;8.798;2023-03-04T15:17:29;5.50;99.90
31765;DHT22;18338;53.240;8.798;2023-03-04T15:22:32;5.30;99.90
31765;DHT22;18338;53.240;8.798;2023-03-04T15:25:00;5.10;99.90
31765;DHT22;18338;53.240;8.798;2023-03-04T15:27:28;5.10;99.90
31765;DHT22;18338;53.240;8.798;2023-03-04T15:29:58;5.20;99.90
31765;DHT22;18338;53.240;8.798;2023-03-04T15:32:26;5.30;99.90
31765;DHT22;18338;53.240;8.798;2023-03-04T15:34:53;5.40;99.90
31765;DHT22;18338;53.240;8.798;2023-03-04T15:37:27;5.50;99.90
31765;DHT22;18338;53.240;8.798;2023-03-04T15:39:56;5.40;99.90
31765;DHT22;18338;53.240;8.798;2023-03-04T15:42:24;5.50;99.90
31765;DHT22;18338;53.240;8.798;2023-03-04T15:44:50;5.40;99.90
31765;DHT22;18338;53.240;8.798;2023-03-04T15:47:17;5.30;99.90
31765;DHT22;18338;53.240;8.798;2023-03-04T15:49:44;5.10;99.90
31765;DHT22;18338;53.240;8.798;2023-03-04T15:52:18;4.90;99.90
31765;DHT22;18338;53.240;8.798;2023-03-04T15:54:47;4.50;99.90
31765;DHT22;18338;53.240;8.798;2023-03-04T15:57:22;4.40;99.90
31765;DHT22;18338;53.240;8.798;2023-03-04T15:59:50;4.40;99.90
31765;DHT22;18338;53.240;8.798;2023-03-04T16:02:22;4.30;99.90
31765;DHT22;18338;53.240;8.798;2023-03-04T16:04:49;4.30;99.90
31765;DHT22;18338;53.240;8.798;2023-03-04T16:07:18;4.30;99.90
31765;DHT22;18338;53.240;8.798;2023-03-04T16:09:48;4.20;99.90
31765;DHT22;18338;53.240;8.798;2023-03-04T16:12:17;4.20;99.90
31765;DHT22;18338;53.240;8.798;2023-03-04T16:14:44;4.20;99.90
31765;DHT22;18338;53.240;8.798;2023-03-04T16:17:12;4.20;99.90
31765;DHT22;18338;53.240;8.798;2023-03-04T16:19:41;4.20;99.90
31765;DHT22;18338;53.240;8.798;2023-03-04T16:22:22;4.20;99.90
31765;DHT22;18338;53.240;8.798;2023-03-04T16:24:51;4.10;99.90
31765;DHT22;18338;53.240;8.798;2023-03-04T16:27:20;4.10;99.90
31765;DHT22;18338;53.240;8.798;2023-03-04T16:29:47;4.10;99.90
31765;DHT22;18338;53.240;8.798;2023-03-04T16:32:14;4.10;99.90
31765;DHT22;18338;53.240;8.798;2023-03-04T16:34:41;4.10;99.90
31765;DHT22;18338;53.240;8.798;2023-03-04T16:37:13;4.10;99.90
31765;DHT22;18338;53.240;8.798;2023-03-04T16:39:41;4.10;99.90
31765;DHT22;18338;53.240;8.798;2023-03-04T16:42:14;4.00;99.90
31765;DHT22;18338;53.240;8.798;2023-03-04T16:44:42;4.10;99.90
31765;DHT22;18338;53.240;8.798;2023-03-04T16:47:09;4.10;99.90
31765;DHT22;18338;53.240;8.798;2023-03-04T16:49:36;4.00;99.90
31765;DHT22;18338;53.240;8.798;2023-03-04T16:52:04;4.10;99.90
31765;DHT22;18338;53.240;8.798;2023-03-04T16:54:33;4.00;99.90
31765;DHT22;18338;53.240;8.798;2023-03-04T16:57:01;4.00;99.90
31765;DHT22;18338;53.240;8.798;2023-03-04T16:59:28;4.00;99.90
31765;DHT22;18338;53.240;8.798;2023-03-04T17:01:55;4.00;99.90
31765;DHT22;18338;53.240;8.798;2023-03-04T17:04:22;4.00;99.90
31765;DHT22;18338;53.240;8.798;2023-03-04T17:06:49;4.00;99.90
31765;DHT22;18338;53.240;8.798;2023-03-04T17:09:16;4.00;99.90
31765;DHT22;18338;53.240;8.798;2023-03-04T17:11:43;4.00;99.90
31765;DHT22;18338;53.240;8.798;2023-03-04T17:14:10;4.00;99.90
31765;DHT22;18338;53.240;8.798;2023-03-04T17:16:36;4.00;99.90
31765;DHT22;18338;53.240;8.798;2023-03-04T17:19:03;4.00;99.90
31765;DHT22;18338;53.240;8.798;2023-03-04T17:21:30;4.00;99.90
31765;DHT22;18338;53.240;8.798;2023-03-04T17:23:56;4.00;99.90
31765;DHT22;18338;53.240;8.798;2023-03-04T17:26:23;4.00;99.90
31765;DHT22;18338;53.240;8.798;2023-03-04T17:28:50;4.00;99.90
31765;DHT22;18338;53.240;8.798;2023-03-04T17:31:19;4.00;99.90
31765;DHT22;18338;53.240;8.798;2023-03-04T17:33:46;4.00;99.90
31765;DHT22;18338;53.240;8.798;2023-03-04T17:36:14;4.00;99.90
31765;DHT22;18338;53.240;8.798;2023-03-04T17:38:45;4.00;99.90
31765;DHT22;18338;53.240;8.798;2023-03-04T17:41:16;4.00;99.90
31765;DHT22;18338;53.240;8.798;2023-03-04T17:44:05;4.00;99.90
31765;DHT22;18338;53.240;8.798;2023-03-04T17:46:37;4.00;99.90
31765;DHT22;18338;53.240;8.798;2023-03-04T17:49:19;4.00;99.90
31765;DHT22;18338;53.240;8.798;2023-03-04T17:51:45;4.00;99.90
31765;DHT22;18338;53.240;8.798;2023-03-04T17:54:12;4.00;99.90
31765;DHT22;18338;53.240;8.798;2023-03-04T17:56:47;4.00;99.90
31765;DHT22;18338;53.240;8.798;2023-03-04T17:59:30;3.90;99.90
31765;DHT22;18338;53.240;8.798;2023-03-04T18:01:57;3.90;99.90
31765;DHT22;18338;53.240;8.798;2023-03-04T18:04:25;3.90;99.90
31765;DHT22;18338;53.240;8.798;2023-03-04T18:06:52;3.90;99.90
31765;DHT22;18338;53.240;8.798;2023-03-04T18:09:18;3.90;99.90